Time;durP1;ratioP1;P1;durP2;ratioP2;P2;SDS_P1;SDS_P2;PMS_P1;PMS_P2;Temp;Humidity;BMP_temperature;BMP_pressure;BME280_temperature;BME280_humidity;BME280_pressure;Samples;Min_cycle;Max_cycle;Signal;HPM_P1;HPM_P2
2023/04/17 00:00:23;;;;;;;9.73;6.05;;;;;8.30;96517.00;;;;8282061;28;20333;-72
2023/04/17 00:04:29;;;;;;;10.50;6.77;;;;;8.30;96522.00;;;;8275838;28;20230;-72
2023/04/17 00:08:43;;;;;;;12.07;6.68;;;;;8.30;96517.00;;;;8282563;28;20210;-71
2023/04/17 00:12:46;;;;;;;13.67;6.03;;;;;8.20;96516.00;;;;8283427;28;20236;-72
2023/04/17 00:16:49;;;;;;;12.48;6.95;;;;;8.20;96521.00;;;;8283564;28;20234;-71
2023/04/17 00:20:57;;;;;;;13.50;7.37;;;;;8.10;96523.00;;;;8282674;28;20213;-71
2023/04/17 00:25:00;;;;;;;13.20;7.47;;;;;8.00;96519.00;;;;8285154;28;20194;-71
2023/04/17 00:29:03;;;;;;;11.80;6.60;;;;;8.00;96518.00;;;;8282849;28;20198;-71
2023/04/17 00:33:06;;;;;;;12.27;6.72;;;;;7.90;96516.00;;;;8277618;28;20711;-71
2023/04/17 00:37:12;;;;;;;9.87;5.53;;;;;7.80;96515.00;;;;8268764;28;20194;-71
2023/04/17 00:41:16;;;;;;;13.03;7.10;;;;;7.80;96516.00;;;;8273434;28;20284;-73
2023/04/17 00:45:24;;;;;;;13.27;6.97;;;;;7.80;96513.00;;;;8269807;28;20206;-71
2023/04/17 00:49:28;;;;;;;13.80;7.20;;;;;7.80;96517.00;;;;8276930;28;20225;-71
2023/04/17 00:53:36;;;;;;;10.90;6.90;;;;;7.70;96516.00;;;;8282386;28;20225;-71
2023/04/17 00:57:40;;;;;;;13.40;7.37;;;;;7.60;96511.00;;;;8282289;28;20202;-71
2023/04/17 01:01:46;;;;;;;10.67;6.40;;;;;7.60;96509.00;;;;8288167;28;20248;-72
2023/04/17 01:05:54;;;;;;;11.87;6.63;;;;;7.60;96521.00;;;;8316542;28;20193;-71
2023/04/17 01:10:00;;;;;;;12.85;6.63;;;;;7.60;96516.00;;;;8323058;28;20197;-72
2023/04/17 01:14:04;;;;;;;15.43;6.60;;;;;7.50;96511.00;;;;8325967;28;20221;-72
2023/04/17 01:18:07;;;;;;;14.97;7.07;;;;;7.50;96512.00;;;;8320552;28;20278;-72
2023/04/17 01:22:10;;;;;;;11.63;6.55;;;;;7.50;96504.00;;;;8303802;28;20201;-71
2023/04/17 01:26:18;;;;;;;10.47;6.73;;;;;7.50;96506.00;;;;8318753;28;20535;-72
2023/04/17 01:30:21;;;;;;;11.93;6.68;;;;;7.50;96518.00;;;;8318729;28;20197;-72
2023/04/17 01:34:26;;;;;;;11.53;6.50;;;;;7.40;96522.00;;;;8322270;28;20833;-72
2023/04/17 01:38:32;;;;;;;13.98;6.05;;;;;7.40;96516.00;;;;8324281;28;20208;-72
2023/04/17 01:42:38;;;;;;;12.02;6.82;;;;;7.40;96516.00;;;;8320473;28;20205;-71
2023/04/17 01:46:41;;;;;;;13.27;6.73;;;;;7.30;96521.00;;;;8320002;28;20295;-71
2023/04/17 01:50:45;;;;;;;13.40;7.00;;;;;7.30;96521.00;;;;8320557;28;20260;-71
2023/04/17 01:54:51;;;;;;;12.10;6.90;;;;;7.20;96527.00;;;;8323333;28;20229;-71
2023/04/17 01:58:58;;;;;;;12.17;7.23;;;;;7.10;96520.00;;;;8320631;28;20712;-71
2023/04/17 02:03:04;;;;;;;13.93;6.83;;;;;7.10;96514.00;;;;8316354;28;20766;-71
2023/04/17 02:07:08;;;;;;;14.27;6.83;;;;;7.00;96509.00;;;;8295383;28;20209;-71
2023/04/17 02:11:12;;;;;;;17.23;7.10;;;;;7.00;96513.00;;;;8296904;28;20626;-71
2023/04/17 02:15:17;;;;;;;13.43;6.87;;;;;6.90;96517.00;;;;8294498;28;20230;-71
2023/04/17 02:19:21;;;;;;;13.43;6.50;;;;;6.80;96517.00;;;;8291100;28;20251;-72
2023/04/17 02:23:27;;;;;;;14.47;7.60;;;;;6.80;96511.00;;;;8295181;28;20194;-71
2023/04/17 02:27:35;;;;;;;11.63;6.73;;;;;6.90;96520.00;;;;8289367;28;20190;-71
2023/04/17 02:31:41;;;;;;;14.20;6.90;;;;;6.80;96514.00;;;;8290438;28;20202;-71
2023/04/17 02:35:55;;;;;;;14.60;7.00;;;;;6.90;96523.00;;;;8301674;28;20313;-71
2023/04/17 02:39:58;;;;;;;12.90;6.90;;;;;6.80;96517.00;;;;8287890;28;20206;-72
2023/04/17 02:44:03;;;;;;;13.87;6.73;;;;;6.80;96520.00;;;;8288644;28;20289;-72
2023/04/17 02:48:08;;;;;;;16.45;7.32;;;;;6.80;96512.00;;;;8294212;28;20194;-72
2023/04/17 02:52:14;;;;;;;13.60;6.73;;;;;6.90;96521.00;;;;8298480;28;20198;-71
2023/04/17 02:56:21;;;;;;;18.37;7.57;;;;;6.90;96524.00;;;;8276130;28;20271;-72
2023/04/17 03:00:26;;;;;;;17.23;7.03;;;;;6.90;96517.00;;;;8292508;28;20210;-71
2023/04/17 03:04:33;;;;;;;17.17;7.33;;;;;6.80;96516.00;;;;8353291;22;20229;-72
2023/04/17 03:08:38;;;;;;;20.67;7.73;;;;;6.80;96520.00;;;;8331182;28;20273;-71
2023/04/17 03:12:41;;;;;;;15.37;7.37;;;;;6.80;96525.00;;;;8302600;28;20741;-71
2023/04/17 03:16:44;;;;;;;20.60;7.67;;;;;6.80;96532.00;;;;8332682;28;20708;-71
2023/04/17 03:20:52;;;;;;;19.07;8.40;;;;;6.80;96523.00;;;;8348343;28;20200;-71
2023/04/17 03:24:56;;;;;;;17.80;7.87;;;;;6.70;96519.00;;;;8340386;28;20235;-72
2023/04/17 03:29:11;;;;;;;265.20;12.57;;;;;6.60;96526.00;;;;8334595;28;20228;-72
2023/04/17 03:33:15;;;;;;;35.90;7.07;;;;;6.30;96533.00;;;;8329259;28;20240;-72
2023/04/17 03:37:22;;;;;;;20.87;5.93;;;;;6.10;96528.00;;;;8315044;28;20233;-72
2023/04/17 03:41:25;;;;;;;18.37;6.40;;;;;6.00;96532.00;;;;8315708;28;20220;-71
2023/04/17 03:45:28;;;;;;;15.53;6.53;;;;;5.90;96528.00;;;;8318690;28;20817;-71
2023/04/17 03:49:31;;;;;;;15.97;7.27;;;;;5.90;96532.00;;;;8318039;28;20642;-71
2023/04/17 03:53:39;;;;;;;16.70;7.70;;;;;6.10;96533.00;;;;8323026;28;20266;-72
2023/04/17 03:57:47;;;;;;;20.07;8.07;;;;;6.20;96534.00;;;;8320067;28;20258;-71
2023/04/17 04:01:53;;;;;;;19.33;7.40;;;;;6.30;96542.00;;;;8331693;28;20234;-71
2023/04/17 04:05:56;;;;;;;17.60;7.13;;;;;6.40;96543.00;;;;8331819;28;20964;-72
2023/04/17 04:10:12;;;;;;;22.00;7.77;;;;;6.20;96549.00;;;;8334070;28;20200;-72
2023/04/17 04:14:15;;;;;;;411.27;18.00;;;;;6.00;96549.00;;;;8336382;28;20197;-71
2023/04/17 04:18:18;;;;;;;15.40;6.20;;;;;5.80;96547.00;;;;8345367;28;20294;-71
2023/04/17 04:22:24;;;;;;;17.93;7.90;;;;;5.90;96553.00;;;;8339529;28;21177;-71
2023/04/17 04:26:30;;;;;;;21.83;8.47;;;;;6.00;96553.00;;;;8342979;28;20196;-71
2023/04/17 04:30:39;;;;;;;20.90;8.83;;;;;6.20;96559.00;;;;8344390;28;20282;-72
2023/04/17 04:34:44;;;;;;;24.33;9.90;;;;;6.40;96560.00;;;;8341032;28;20197;-72
2023/04/17 04:38:49;;;;;;;22.33;10.10;;;;;6.50;96565.00;;;;8339808;28;20646;-73
2023/04/17 04:42:59;;;;;;;440.60;19.27;;;;;6.50;96566.00;;;;8352032;28;20665;-72
2023/04/17 04:47:04;;;;;;;284.53;13.90;;;;;6.20;96560.00;;;;8346454;28;20196;-72
2023/04/17 04:51:07;;;;;;;21.13;7.20;;;;;6.10;96563.00;;;;8349169;28;20284;-72
2023/04/17 04:55:14;;;;;;;15.10;6.50;;;;;6.10;96568.00;;;;8348020;28;20249;-72
2023/04/17 04:59:18;;;;;;;61.47;7.63;;;;;6.00;96568.00;;;;8352226;28;20857;-72
2023/04/17 05:03:24;;;;;;;18.67;7.70;;;;;6.10;96571.00;;;;8345057;28;20227;-72
2023/04/17 05:07:27;;;;;;;17.53;8.17;;;;;6.20;96567.00;;;;8349637;28;20204;-72
2023/04/17 05:11:32;;;;;;;27.17;9.33;;;;;6.50;96578.00;;;;8349928;28;20669;-71
2023/04/17 05:15:37;;;;;;;21.63;8.77;;;;;6.70;96572.00;;;;8347895;28;20228;-72
2023/04/17 05:19:40;;;;;;;24.63;8.93;;;;;6.90;96577.00;;;;8345661;28;20208;-71
2023/04/17 05:23:43;;;;;;;22.57;8.73;;;;;7.00;96583.00;;;;8345124;28;20201;-72
2023/04/17 05:27:49;;;;;;;23.43;9.37;;;;;7.10;96578.00;;;;8349232;28;20201;-72
2023/04/17 05:31:56;;;;;;;32.17;13.50;;;;;7.20;96582.00;;;;8347366;28;20197;-73
2023/04/17 05:36:02;;;;;;;19.47;8.37;;;;;7.30;96587.00;;;;8347613;28;20623;-73
2023/04/17 05:40:09;;;;;;;18.03;7.73;;;;;7.40;96590.00;;;;8343919;28;20200;-73
2023/04/17 05:44:12;;;;;;;22.35;8.85;;;;;7.50;96594.00;;;;8352160;28;20201;-73
2023/04/17 05:48:16;;;;;;;18.87;8.10;;;;;7.60;96597.00;;;;8345248;28;20720;-72
2023/04/17 05:52:20;;;;;;;22.08;8.52;;;;;7.70;96602.00;;;;8351386;28;20197;-72
2023/04/17 05:56:25;;;;;;;21.97;8.47;;;;;7.90;96596.00;;;;8346211;28;20641;-72
2023/04/17 06:00:29;;;;;;;21.85;9.27;;;;;8.10;96597.00;;;;8343019;28;20704;-71
2023/04/17 06:04:34;;;;;;;17.60;8.75;;;;;8.30;96605.00;;;;8342188;28;20228;-71
2023/04/17 06:08:39;;;;;;;21.92;8.75;;;;;8.50;96605.00;;;;8339253;28;20254;-72
2023/04/17 06:12:45;;;;;;;18.17;7.82;;;;;8.60;96603.00;;;;8346906;28;20197;-72
2023/04/17 06:16:49;;;;;;;19.38;7.90;;;;;8.80;96600.00;;;;8339225;28;20297;-71
2023/04/17 06:20:53;;;;;;;20.17;8.45;;;;;9.00;96597.00;;;;8327870;28;20205;-71
2023/04/17 06:24:56;;;;;;;16.73;8.38;;;;;9.20;96605.00;;;;8330433;28;20197;-70
2023/04/17 06:29:00;;;;;;;18.77;8.93;;;;;9.40;96604.00;;;;8325745;28;20261;-70
2023/04/17 06:33:06;;;;;;;13.27;7.57;;;;;9.60;96605.00;;;;8346074;28;20193;-70
2023/04/17 06:37:10;;;;;;;14.25;7.63;;;;;9.80;96607.00;;;;8332050;28;20321;-70
2023/04/17 06:41:17;;;;;;;13.55;6.82;;;;;9.90;96618.00;;;;8347810;28;20290;-70
2023/04/17 06:45:20;;;;;;;12.82;6.85;;;;;9.90;96613.00;;;;8348364;28;20300;-70
2023/04/17 06:49:23;;;;;;;11.25;6.75;;;;;10.00;96617.00;;;;8346375;28;20197;-70
2023/04/17 06:53:27;;;;;;;12.32;7.20;;;;;10.10;96607.00;;;;8349003;28;20199;-70
2023/04/17 06:57:32;;;;;;;12.35;7.45;;;;;10.20;96609.00;;;;8347927;28;20247;-70
2023/04/17 07:01:39;;;;;;;10.80;6.32;;;;;10.20;96611.00;;;;8346970;28;20727;-70
2023/04/17 07:05:44;;;;;;;10.13;6.90;;;;;10.30;96607.00;;;;8348783;28;20223;-70
2023/04/17 07:09:51;;;;;;;8.93;6.18;;;;;10.40;96616.00;;;;8351741;28;20221;-70
2023/04/17 07:13:55;;;;;;;10.30;6.88;;;;;10.60;96621.00;;;;8345805;28;20244;-69
2023/04/17 07:18:03;;;;;;;9.50;5.75;;;;;10.90;96622.00;;;;8345402;28;20228;-71
2023/04/17 07:22:06;;;;;;;9.25;6.85;;;;;11.40;96627.00;;;;8349097;28;20201;-71
2023/04/17 07:26:12;;;;;;;7.57;5.90;;;;;11.80;96631.00;;;;8349563;28;20213;-71
2023/04/17 07:30:17;;;;;;;8.55;5.63;;;;;12.20;96625.00;;;;8343408;28;20203;-71
2023/04/17 07:34:20;;;;;;;7.65;5.00;;;;;12.30;96639.00;;;;8340730;28;20278;-71
2023/04/17 07:38:27;;;;;;;7.28;5.00;;;;;12.50;96651.00;;;;8349158;28;20220;-71
2023/04/17 07:42:32;;;;;;;8.38;5.75;;;;;12.90;96654.00;;;;8346104;28;20192;-70
2023/04/17 07:46:38;;;;;;;8.38;6.03;;;;;12.80;96659.00;;;;8348922;28;20708;-70
2023/04/17 07:50:58;;;;;;;8.38;6.38;;;;;12.60;96662.00;;;;8348294;28;20227;-70
2023/04/17 07:55:01;;;;;;;10.65;7.35;;;;;12.40;96660.00;;;;8345501;28;20631;-70
2023/04/17 07:59:05;;;;;;;13.38;9.20;;;;;13.00;96671.00;;;;8348287;28;20578;-70
2023/04/17 08:03:08;;;;;;;10.52;8.32;;;;;12.80;96669.00;;;;8345159;28;20224;-70
2023/04/17 08:07:13;;;;;;;12.85;8.30;;;;;13.30;96676.00;;;;8342692;28;20868;-70
2023/04/17 08:11:16;;;;;;;8.23;6.88;;;;;14.00;96673.00;;;;8347096;28;20201;-69
2023/04/17 08:15:23;;;;;;;8.75;7.18;;;;;14.10;96670.00;;;;8344554;28;20205;-70
2023/04/17 08:19:26;;;;;;;9.13;7.22;;;;;13.70;96675.00;;;;8340140;28;20678;-69
2023/04/17 08:23:29;;;;;;;7.93;6.30;;;;;13.60;96671.00;;;;8341334;28;20314;-69
2023/04/17 08:27:33;;;;;;;7.22;5.75;;;;;13.50;96682.00;;;;8328271;28;20402;-69
2023/04/17 08:31:39;;;;;;;7.57;6.18;;;;;13.50;96690.00;;;;8344264;28;20204;-69
2023/04/17 08:35:42;;;;;;;7.88;6.57;;;;;13.40;96688.00;;;;8342946;28;20204;-70
2023/04/17 08:39:51;;;;;;;8.50;7.03;;;;;13.30;96687.00;;;;8344947;28;20310;-69
2023/04/17 08:43:55;;;;;;;6.50;5.75;;;;;13.30;96692.00;;;;8328985;28;20673;-69
2023/04/17 08:48:00;;;;;;;8.15;6.53;;;;;13.20;96690.00;;;;8328843;28;20250;-69
2023/04/17 08:52:08;;;;;;;8.15;6.93;;;;;13.30;96690.00;;;;8345024;28;20255;-69
2023/04/17 08:56:21;;;;;;;5.80;5.13;;;;;13.50;96685.00;;;;8343066;28;20197;-70
2023/04/17 09:00:26;;;;;;;6.45;5.20;;;;;13.40;96686.00;;;;8344922;28;20205;-70
2023/04/17 09:04:38;;;;;;;5.68;4.95;;;;;13.40;96682.00;;;;8344439;28;20315;-69
2023/04/17 09:08:55;;;;;;;6.53;5.68;;;;;13.50;96686.00;;;;8334352;28;20271;-69
2023/04/17 09:13:02;;;;;;;5.65;5.05;;;;;13.70;96689.00;;;;8342606;28;20263;-69
2023/04/17 09:17:05;;;;;;;6.15;5.40;;;;;13.70;96695.00;;;;8346022;28;20260;-69
2023/04/17 09:21:10;;;;;;;6.68;5.75;;;;;13.90;96684.00;;;;8344728;28;20616;-69
2023/04/17 09:25:17;;;;;;;9.43;6.30;;;;;14.00;96677.00;;;;8343472;28;20216;-69
2023/04/17 09:29:23;;;;;;;5.53;5.03;;;;;14.20;96673.00;;;;8350550;28;20204;-69
2023/04/17 09:33:26;;;;;;;5.43;4.93;;;;;14.50;96678.00;;;;8354521;28;20998;-70
2023/04/17 09:37:58;;;;;;;5.47;4.97;;;;;15.10;96677.00;;;;8345756;28;20221;-69
2023/04/17 09:42:02;;;;;;;5.45;4.82;;;;;14.60;96677.00;;;;8335409;28;20205;-69
2023/04/17 09:46:06;;;;;;;4.93;4.43;;;;;14.70;96681.00;;;;8346081;28;20732;-70
2023/04/17 09:50:12;;;;;;;5.53;4.75;;;;;14.70;96672.00;;;;8346611;28;20235;-70
2023/04/17 09:54:18;;;;;;;4.60;4.20;;;;;15.10;96679.00;;;;8348393;28;20623;-70
2023/04/17 09:58:22;;;;;;;4.40;4.00;;;;;15.20;96680.00;;;;8347036;28;20228;-70
2023/04/17 10:02:28;;;;;;;6.25;5.47;;;;;15.20;96685.00;;;;8347706;28;20257;-70
2023/04/17 10:06:32;;;;;;;5.55;4.95;;;;;16.10;96677.00;;;;8350476;28;20307;-70
2023/04/17 10:10:37;;;;;;;6.85;5.35;;;;;16.40;96682.00;;;;8345917;28;20201;-70
2023/04/17 10:14:43;;;;;;;4.90;4.50;;;;;16.80;96682.00;;;;8350743;28;20959;-70
2023/04/17 10:18:46;;;;;;;5.18;4.65;;;;;17.00;96673.00;;;;8347634;28;20228;-70
2023/04/17 10:22:53;;;;;;;4.97;4.57;;;;;16.90;96665.00;;;;8348312;28;20207;-70
2023/04/17 10:27:00;;;;;;;3.65;3.45;;;;;16.80;96671.00;;;;8343496;28;20955;-70
2023/04/17 10:31:05;;;;;;;4.20;3.90;;;;;16.50;96671.00;;;;8338479;28;20205;-69
2023/04/17 10:35:35;;;;;;;5.20;4.30;;;;;16.30;96667.00;;;;8326891;28;20205;-70
2023/04/17 10:39:55;;;;;;;4.30;3.88;;;;;16.40;96665.00;;;;8331887;28;20279;-70
2023/04/17 10:44:00;;;;;;;5.55;3.90;;;;;16.30;96654.00;;;;8336547;28;20213;-69
2023/04/17 10:48:08;;;;;;;4.90;3.95;;;;;16.50;96653.00;;;;8344263;28;20204;-69
2023/04/17 10:52:40;;;;;;;3.85;3.55;;;;;16.60;96654.00;;;;8344041;28;20190;-69
2023/04/17 10:56:47;;;;;;;4.53;3.58;;;;;16.40;96659.00;;;;8346467;28;20204;-69
2023/04/17 11:00:52;;;;;;;3.33;3.13;;;;;15.80;96654.00;;;;8342183;28;20204;-69
2023/04/17 11:05:06;;;;;;;3.63;2.70;;;;;15.20;96653.00;;;;8339363;28;20225;-69
2023/04/17 11:09:11;;;;;;;3.35;3.05;;;;;14.70;96656.00;;;;8339550;28;20338;-70
2023/04/17 11:13:15;;;;;;;3.60;3.30;;;;;13.60;96657.00;;;;8342860;28;20197;-70
2023/04/17 11:17:22;;;;;;;3.90;3.60;;;;;12.90;96651.00;;;;8350993;28;20224;-70
2023/04/17 11:21:28;;;;;;;3.63;3.22;;;;;12.80;96656.00;;;;8342097;28;20836;-71
2023/04/17 11:25:32;;;;;;;3.70;3.40;;;;;12.90;96644.00;;;;8345505;28;20326;-71
2023/04/17 11:29:36;;;;;;;3.35;3.10;;;;;13.20;96649.00;;;;8327720;28;20291;-70
2023/04/17 11:33:41;;;;;;;3.05;2.85;;;;;13.30;96646.00;;;;8325811;28;20201;-70
2023/04/17 11:38:19;;;;;;;2.90;2.70;;;;;13.00;96654.00;;;;8345196;28;20232;-71
2023/04/17 11:42:27;;;;;;;2.28;2.17;;;;;12.70;96646.00;;;;8325937;28;20299;-72
2023/04/17 11:46:30;;;;;;;2.20;2.10;;;;;12.70;96640.00;;;;8342642;28;20205;-72
2023/04/17 11:50:36;;;;;;;2.70;2.50;;;;;13.60;96658.00;;;;8344470;28;20204;-71
2023/04/17 11:54:42;;;;;;;2.13;2.03;;;;;14.10;96659.00;;;;8344308;28;20197;-70
2023/04/17 11:58:46;;;;;;;2.15;2.03;;;;;14.50;96651.00;;;;8345176;28;20233;-69
2023/04/17 12:02:50;;;;;;;2.72;1.90;;;;;14.70;96649.00;;;;8340728;28;20224;-71
2023/04/17 12:06:58;;;;;;;2.20;2.10;;;;;14.70;96654.00;;;;8344064;28;20792;-69
2023/04/17 12:11:01;;;;;;;2.20;2.10;;;;;14.70;96668.00;;;;8344511;28;20642;-70
2023/04/17 12:15:05;;;;;;;3.00;2.80;;;;;14.70;96663.00;;;;8345834;28;20424;-69
2023/04/17 12:19:15;;;;;;;2.70;2.50;;;;;14.40;96659.00;;;;8345269;28;20846;-70
2023/04/17 12:23:21;;;;;;;2.20;2.10;;;;;13.50;96666.00;;;;8339250;28;20232;-70
2023/04/17 12:27:25;;;;;;;2.22;2.00;;;;;13.00;96659.00;;;;8344311;28;20193;-70
2023/04/17 12:31:30;;;;;;;3.75;2.10;;;;;12.70;96653.00;;;;8325213;28;20252;-69
2023/04/17 12:35:37;;;;;;;3.03;2.83;;;;;12.70;96659.00;;;;8352709;28;21079;-69
2023/04/17 12:39:48;;;;;;;3.13;2.83;;;;;12.60;96667.00;;;;8348136;28;20319;-70
2023/04/17 12:43:54;;;;;;;4.25;3.05;;;;;12.70;96658.00;;;;8344044;28;20243;-70
2023/04/17 12:47:57;;;;;;;2.80;2.60;;;;;13.00;96653.00;;;;8343270;28;20205;-70
2023/04/17 12:52:00;;;;;;;4.30;2.58;;;;;13.10;96651.00;;;;8346767;28;20196;-69
2023/04/17 12:56:09;;;;;;;2.00;1.80;;;;;13.20;96652.00;;;;8344172;28;20880;-69
2023/04/17 13:00:13;;;;;;;1.83;1.73;;;;;13.40;96651.00;;;;8350584;28;20728;-69
2023/04/17 13:04:18;;;;;;;1.40;1.40;;;;;13.80;96647.00;;;;8361451;28;20585;-69
2023/04/17 13:08:24;;;;;;;1.90;1.90;;;;;14.00;96644.00;;;;8359823;28;20254;-68
2023/04/17 13:12:30;;;;;;;1.83;1.73;;;;;14.20;96635.00;;;;8352054;28;20263;-68
2023/04/17 13:16:33;;;;;;;1.30;1.30;;;;;14.80;96647.00;;;;8344925;28;20668;-69
2023/04/17 13:20:38;;;;;;;1.60;1.60;;;;;14.40;96641.00;;;;8359625;28;20319;-69
2023/04/17 13:24:45;;;;;;;1.60;1.60;;;;;14.30;96636.00;;;;8343121;28;20196;-69
2023/04/17 13:28:49;;;;;;;2.63;1.70;;;;;14.10;96631.00;;;;8361459;28;20209;-69
2023/04/17 13:32:52;;;;;;;1.40;1.40;;;;;14.10;96637.00;;;;8363293;28;20197;-69
2023/04/17 13:36:58;;;;;;;1.20;1.20;;;;;14.30;96631.00;;;;8369816;28;20197;-69
2023/04/17 13:41:01;;;;;;;1.13;1.13;;;;;14.70;96630.00;;;;8366277;28;20223;-68
2023/04/17 13:45:08;;;;;;;1.33;1.33;;;;;15.20;96627.00;;;;8356048;28;20686;-69
2023/04/17 13:49:23;;;;;;;1.20;1.20;;;;;15.70;96628.00;;;;8347755;28;20590;-69
2023/04/17 13:53:26;;;;;;;1.20;1.20;;;;;16.00;96617.00;;;;8360253;28;20204;-68
2023/04/17 13:57:37;;;;;;;1.50;1.50;;;;;16.40;96621.00;;;;8353323;28;20192;-68
2023/04/17 14:01:42;;;;;;;1.30;1.30;;;;;16.80;96621.00;;;;8345761;28;20284;-68
2023/04/17 14:05:48;;;;;;;1.33;1.33;;;;;16.80;96618.00;;;;8351013;28;20211;-68
2023/04/17 14:09:51;;;;;;;1.20;1.20;;;;;16.60;96614.00;;;;8349947;28;20197;-68
2023/04/17 14:14:00;;;;;;;1.20;1.20;;;;;16.90;96606.00;;;;8357789;28;20225;-68
2023/04/17 14:18:09;;;;;;;1.30;1.30;;;;;16.70;96619.00;;;;8352936;28;20720;-69
2023/04/17 14:22:12;;;;;;;1.30;1.30;;;;;16.80;96619.00;;;;8351928;28;20657;-68
2023/04/17 14:26:20;;;;;;;1.10;1.10;;;;;17.10;96611.00;;;;8354901;28;20247;-69
2023/04/17 14:30:24;;;;;;;1.23;1.23;;;;;16.40;96615.00;;;;8347479;28;20254;-68
2023/04/17 14:34:34;;;;;;;1.58;1.40;;;;;15.90;96618.00;;;;8348724;28;20204;-68
2023/04/17 14:38:39;;;;;;;1.92;1.35;;;;;15.50;96618.00;;;;8354108;28;20640;-68
2023/04/17 14:42:43;;;;;;;1.27;1.27;;;;;15.30;96614.00;;;;8352370;28;20904;-68
2023/04/17 14:46:59;;;;;;;1.00;1.00;;;;;16.30;96603.00;;;;8352936;28;20193;-68
2023/04/17 14:51:12;;;;;;;1.10;1.10;;;;;17.20;96599.00;;;;8352456;28;20352;-68
2023/04/17 14:55:17;;;;;;;1.10;1.10;;;;;17.60;96606.00;;;;8355010;28;20598;-69
2023/04/17 14:59:21;;;;;;;1.00;1.00;;;;;17.30;96601.00;;;;8344867;28;20260;-68
2023/04/17 15:03:26;;;;;;;0.98;0.98;;;;;17.20;96596.00;;;;8352513;28;20225;-68
2023/04/17 15:07:33;;;;;;;1.10;1.10;;;;;17.30;96599.00;;;;8341546;28;20863;-68
2023/04/17 15:11:37;;;;;;;1.25;1.25;;;;;17.20;96599.00;;;;8344622;28;20209;-68
2023/04/17 15:15:40;;;;;;;1.30;1.30;;;;;17.10;96587.00;;;;8349334;28;20196;-68
2023/04/17 15:19:43;;;;;;;1.30;1.30;;;;;16.80;96602.00;;;;8352807;28;20228;-68
2023/04/17 15:23:48;;;;;;;1.77;1.20;;;;;16.70;96608.00;;;;8357210;28;20196;-69
2023/04/17 15:27:52;;;;;;;1.20;1.20;;;;;16.70;96602.00;;;;8350354;28;20215;-69
2023/04/17 15:31:55;;;;;;;1.30;1.30;;;;;16.80;96606.00;;;;8360468;28;20212;-68
2023/04/17 15:35:59;;;;;;;2.17;1.40;;;;;16.70;96601.00;;;;8363565;28;20607;-69
2023/04/17 15:40:05;;;;;;;1.30;1.30;;;;;16.70;96600.00;;;;8348430;28;20232;-69
2023/04/17 15:44:15;;;;;;;1.25;1.25;;;;;16.80;96594.00;;;;8341240;28;20584;-69
2023/04/17 15:48:21;;;;;;;1.33;1.33;;;;;16.70;96590.00;;;;8338485;28;20204;-70
2023/04/17 15:52:30;;;;;;;1.10;1.10;;;;;16.80;96591.00;;;;8348380;28;20209;-71
2023/04/17 15:56:34;;;;;;;1.30;1.30;;;;;16.50;96589.00;;;;8349454;28;20197;-71
2023/04/17 16:00:37;;;;;;;1.48;1.48;;;;;16.50;96587.00;;;;8347963;28;20236;-70
2023/04/17 16:04:43;;;;;;;1.40;1.40;;;;;16.40;96588.00;;;;8349839;28;20320;-70
2023/04/17 16:08:49;;;;;;;1.30;1.30;;;;;16.40;96593.00;;;;8347590;28;20223;-70
2023/04/17 16:12:53;;;;;;;1.50;1.50;;;;;16.50;96587.00;;;;8352399;28;20242;-70
2023/04/17 16:16:59;;;;;;;1.67;1.58;;;;;16.60;96600.00;;;;8340165;28;20196;-70
2023/04/17 16:21:03;;;;;;;1.30;1.30;;;;;16.90;96598.00;;;;8334853;28;20225;-71
2023/04/17 16:25:07;;;;;;;1.50;1.50;;;;;16.70;96606.00;;;;8329685;28;20877;-71
2023/04/17 16:29:13;;;;;;;1.20;1.20;;;;;16.70;96604.00;;;;8343920;28;20201;-71
2023/04/17 16:33:21;;;;;;;1.67;1.67;;;;;17.00;96601.00;;;;8349230;28;20193;-71
2023/04/17 16:37:26;;;;;;;1.40;1.40;;;;;17.00;96598.00;;;;8343199;28;20205;-70
2023/04/17 16:41:29;;;;;;;1.50;1.50;;;;;16.40;96602.00;;;;8325341;28;20233;-70
2023/04/17 16:45:39;;;;;;;1.38;1.38;;;;;15.80;96600.00;;;;8343436;28;20240;-71
2023/04/17 16:49:42;;;;;;;1.70;1.60;;;;;15.30;96603.00;;;;8339661;28;20250;-71
2023/04/17 16:53:49;;;;;;;1.40;1.40;;;;;15.10;96600.00;;;;8345086;28;20200;-71
2023/04/17 16:57:53;;;;;;;1.85;1.75;;;;;15.10;96606.00;;;;8336808;28;20196;-71
2023/04/17 17:01:57;;;;;;;2.00;1.90;;;;;14.70;96607.00;;;;8341994;28;20283;-72
2023/04/17 17:06:05;;;;;;;1.95;1.85;;;;;14.40;96611.00;;;;8334660;28;20283;-72
2023/04/17 17:10:09;;;;;;;1.55;1.55;;;;;14.20;96617.00;;;;8340265;28;20206;-72
2023/04/17 17:14:14;;;;;;;3.85;2.25;;;;;13.90;96614.00;;;;8344125;28;20201;-72
2023/04/17 17:18:19;;;;;;;6.47;2.95;;;;;13.80;96623.00;;;;8343479;28;20680;-73
2023/04/17 17:22:22;;;;;;;1.73;1.63;;;;;13.70;96629.00;;;;8345156;28;20577;-72
2023/04/17 17:26:29;;;;;;;2.08;1.90;;;;;13.60;96645.00;;;;8346588;28;20216;-73
2023/04/17 17:30:33;;;;;;;2.20;2.00;;;;;13.00;96650.00;;;;8350522;28;20197;-73
2023/04/17 17:34:37;;;;;;;2.00;1.90;;;;;12.20;96644.00;;;;8342130;28;20204;-74
2023/04/17 17:38:41;;;;;;;3.83;2.70;;;;;11.60;96654.00;;;;8346470;28;20199;-74
2023/04/17 17:42:44;;;;;;;6.03;2.97;;;;;11.20;96650.00;;;;8346237;28;20286;-75
2023/04/17 17:46:49;;;;;;;3.33;2.85;;;;;11.00;96656.00;;;;8343859;28;20626;-75
2023/04/17 17:50:55;;;;;;;4.97;2.40;;;;;10.80;96648.00;;;;8349986;28;20200;-75
2023/04/17 17:55:02;;;;;;;2.45;2.35;;;;;10.60;96661.00;;;;8352975;28;20196;-73
2023/04/17 17:59:06;;;;;;;2.33;2.20;;;;;10.50;96655.00;;;;8350121;28;20199;-74
2023/04/17 18:03:09;;;;;;;2.22;1.80;;;;;10.50;96663.00;;;;8351051;28;20262;-74
2023/04/17 18:07:16;;;;;;;2.70;2.50;;;;;10.50;96660.00;;;;8350975;28;20287;-75
2023/04/17 18:11:20;;;;;;;3.05;2.80;;;;;10.30;96662.00;;;;8343216;28;20199;-77
2023/04/17 18:15:25;;;;;;;2.20;2.10;;;;;10.20;96675.00;;;;8350028;28;20810;-74
2023/04/17 18:19:30;;;;;;;4.85;2.35;;;;;10.10;96683.00;;;;8337436;28;20193;-75
2023/04/17 18:23:35;;;;;;;6.47;2.40;;;;;10.00;96691.00;;;;8345879;28;20197;-76
2023/04/17 18:27:38;;;;;;;3.05;2.72;;;;;10.00;96690.00;;;;8347280;28;20239;-75
2023/04/17 18:31:43;;;;;;;4.35;2.78;;;;;10.00;96699.00;;;;8350600;28;20933;-75
2023/04/17 18:35:49;;;;;;;2.90;2.70;;;;;9.90;96692.00;;;;8344686;28;20296;-76
2023/04/17 18:39:53;;;;;;;5.32;3.15;;;;;9.90;96689.00;;;;8346971;28;20215;-76
2023/04/17 18:43:56;;;;;;;3.25;3.03;;;;;9.80;96699.00;;;;8342660;28;20896;-74
2023/04/17 18:48:00;;;;;;;5.22;3.55;;;;;9.80;96700.00;;;;8350077;28;20204;-77
2023/04/17 18:52:04;;;;;;;8.15;4.10;;;;;9.80;96702.00;;;;8343211;28;20260;-78
2023/04/17 18:56:15;;;;;;;5.07;3.75;;;;;9.80;96712.00;;;;8338260;28;20918;-75
2023/04/17 19:00:18;;;;;;;4.00;3.13;;;;;9.80;96703.00;;;;8353325;28;20289;-76
2023/04/17 19:04:25;;;;;;;4.88;3.10;;;;;9.70;96707.00;;;;8341634;28;20835;-77
2023/04/17 19:08:28;;;;;;;8.55;3.20;;;;;9.70;96705.00;;;;8347259;28;20193;-77
2023/04/17 19:12:41;;;;;;;9.18;3.55;;;;;9.60;96705.00;;;;8346780;28;20670;-78
2023/04/17 19:16:49;;;;;;;4.15;3.70;;;;;9.60;96708.00;;;;8345289;28;21062;-77
2023/04/17 19:20:52;;;;;;;4.22;3.25;;;;;9.60;96709.00;;;;8347142;28;20224;-77
2023/04/17 19:24:55;;;;;;;2.88;2.60;;;;;9.60;96702.00;;;;8341410;28;20679;-76
2023/04/17 19:29:01;;;;;;;4.43;3.72;;;;;9.50;96708.00;;;;8342726;28;20193;-77
2023/04/17 19:33:12;;;;;;;4.63;3.28;;;;;9.40;96701.00;;;;8341815;28;20210;-76
2023/04/17 19:37:17;;;;;;;5.15;3.47;;;;;9.40;96705.00;;;;8353543;28;20200;-76
2023/04/17 19:41:20;;;;;;;6.83;4.20;;;;;9.30;96703.00;;;;8345009;28;20244;-75
2023/04/17 19:45:26;;;;;;;7.90;4.32;;;;;9.20;96699.00;;;;8342026;28;20655;-75
2023/04/17 19:49:30;;;;;;;9.05;5.13;;;;;9.10;96705.00;;;;8343650;28;20350;-75
2023/04/17 19:53:35;;;;;;;6.85;4.88;;;;;9.10;96701.00;;;;8344806;28;20209;-74
2023/04/17 19:57:38;;;;;;;8.15;5.32;;;;;9.00;96714.00;;;;8352889;28;20201;-75
2023/04/17 20:01:43;;;;;;;12.17;5.40;;;;;9.00;96703.00;;;;8202222;28;4082842;-75
2023/04/17 20:05:46;;;;;;;6.25;4.22;;;;;9.00;96699.00;;;;8350538;28;20207;-74
2023/04/17 20:09:51;;;;;;;11.38;6.07;;;;;9.00;96698.00;;;;8346782;28;20254;-74
2023/04/17 20:13:56;;;;;;;9.15;5.70;;;;;9.10;96702.00;;;;8346851;28;20189;-74
2023/04/17 20:18:02;;;;;;;14.13;7.00;;;;;9.10;96692.00;;;;8331010;28;20254;-72
2023/04/17 20:22:09;;;;;;;15.63;6.90;;;;;9.10;96692.00;;;;8344109;28;20295;-74
2023/04/17 20:26:12;;;;;;;11.07;6.07;;;;;9.00;96695.00;;;;8338915;28;20209;-74
2023/04/17 20:30:19;;;;;;;13.85;7.00;;;;;9.00;96692.00;;;;8341519;28;20252;-75